createdAt,value
2017-12-01T00:00:29.515Z,0.00
2017-12-01T00:01:29.531Z,0.00
2017-12-01T00:02:29.485Z,0.00
2017-12-01T00:03:29.470Z,0.00
2017-12-01T00:04:29.443Z,0.00
2017-12-01T00:05:29.436Z,0.00
2017-12-01T00:06:29.477Z,0.00
2017-12-01T00:07:29.394Z,0.00
2017-12-01T00:08:29.380Z,0.00
2017-12-01T00:09:29.361Z,0.00
2017-12-01T00:10:29.341Z,0.00
2017-12-01T00:11:29.332Z,0.00
2017-12-01T00:12:29.373Z,0.00
2017-12-01T00:13:29.302Z,0.00
2017-12-01T00:14:29.278Z,0.00
2017-12-01T00:15:29.264Z,0.00
2017-12-01T00:16:29.246Z,0.00
2017-12-01T00:17:29.223Z,0.00
2017-12-01T00:18:29.357Z,0.00
2017-12-01T00:19:29.205Z,0.00
2017-12-01T00:20:29.179Z,0.00
2017-12-01T00:21:29.159Z,0.00
2017-12-01T00:22:29.141Z,0.00
2017-12-01T00:23:29.131Z,0.00
2017-12-01T00:24:29.166Z,0.00
2017-12-01T00:25:29.095Z,0.00
2017-12-01T00:26:29.081Z,0.00
2017-12-01T00:27:29.061Z,0.00
2017-12-01T00:28:29.036Z,0.00
2017-12-01T00:29:29.030Z,0.00
2017-12-01T00:30:29.044Z,0.00
2017-12-01T00:31:28.997Z,0.00
2017-12-01T00:32:28.990Z,0.00
2017-12-01T00:33:28.963Z,0.00
2017-12-01T00:34:28.948Z,0.00
2017-12-01T00:35:28.925Z,0.00
2017-12-01T00:36:29.040Z,0.00
2017-12-01T00:37:28.904Z,0.00
2017-12-01T00:38:28.880Z,0.00
2017-12-01T00:39:28.866Z,0.00
2017-12-01T00:40:28.857Z,0.00
2017-12-01T00:41:28.824Z,0.00
2017-12-01T00:42:28.848Z,0.00
2017-12-01T00:43:28.793Z,0.00
2017-12-01T00:44:28.778Z,0.00
2017-12-01T00:45:28.767Z,0.00
2017-12-01T00:46:28.748Z,0.00
2017-12-01T00:47:28.727Z,0.00
2017-12-01T00:48:28.771Z,0.00
2017-12-01T00:49:28.696Z,0.00
2017-12-01T00:50:28.681Z,0.00
2017-12-01T00:51:28.658Z,0.00
2017-12-01T00:52:28.641Z,0.00
2017-12-01T00:53:28.628Z,0.00
2017-12-01T00:54:28.648Z,0.00
2017-12-01T00:55:28.657Z,0.00
2017-12-01T00:56:28.573Z,0.00
2017-12-01T00:57:28.556Z,0.00
2017-12-01T00:58:28.553Z,0.00
2017-12-01T00:59:28.522Z,0.00
2017-12-01T01:00:28.512Z,0.00
2017-12-01T01:01:28.536Z,0.00
2017-12-01T01:02:28.482Z,0.00
2017-12-01T01:03:28.463Z,0.00
2017-12-01T01:04:28.440Z,0.00
2017-12-01T01:05:28.425Z,0.00
2017-12-01T01:06:28.405Z,0.00
2017-12-01T01:07:28.429Z,0.00
2017-12-01T01:08:28.374Z,0.00
2017-12-01T01:09:28.363Z,0.00
2017-12-01T01:10:28.345Z,0.00
2017-12-01T01:11:28.388Z,0.00
2017-12-01T01:12:28.312Z,0.00
2017-12-01T01:13:28.295Z,0.00
2017-12-01T01:14:28.274Z,0.00
2017-12-01T01:15:28.258Z,0.00
2017-12-01T01:16:28.240Z,0.00
2017-12-01T01:17:28.353Z,0.00
2017-12-01T01:18:28.207Z,0.00
2017-12-01T01:19:28.197Z,0.00
2017-12-01T01:20:28.184Z,0.00
2017-12-01T01:21:28.162Z,0.00
2017-12-01T01:22:28.140Z,0.00
2017-12-01T01:23:28.161Z,0.00
2017-12-01T01:24:28.158Z,0.00
2017-12-01T01:25:28.110Z,0.00
2017-12-01T01:26:28.070Z,0.00
2017-12-01T01:27:28.068Z,0.00
2017-12-01T01:28:28.037Z,0.00
2017-12-01T01:29:28.029Z,0.00
2017-12-01T01:30:28.045Z,0.00
2017-12-01T01:31:27.990Z,0.00
2017-12-01T01:32:27.976Z,0.00
2017-12-01T01:33:27.954Z,0.00
2017-12-01T01:34:27.944Z,0.00
2017-12-01T01:35:27.980Z,0.00
2017-12-01T01:36:27.899Z,0.00
2017-12-01T01:37:27.883Z,0.00
2017-12-01T01:38:27.879Z,0.00
2017-12-01T01:39:27.847Z,0.00
2017-12-01T01:40:27.836Z,0.00
2017-12-01T01:41:27.898Z,0.00
2017-12-01T01:42:27.815Z,0.00
2017-12-01T01:43:27.803Z,0.00
2017-12-01T01:44:27.779Z,0.00
2017-12-01T01:45:27.755Z,0.00
2017-12-01T01:46:27.737Z,0.00
2017-12-01T01:47:27.797Z,0.00
2017-12-01T01:48:27.702Z,0.00
2017-12-01T01:49:27.693Z,0.00
2017-12-01T01:50:27.675Z,0.00
2017-12-01T01:51:27.669Z,0.00
2017-12-01T01:52:27.629Z,0.00
2017-12-01T01:53:27.687Z,0.00
2017-12-01T01:54:27.613Z,0.00
2017-12-01T01:55:27.595Z,0.00
2017-12-01T01:56:27.563Z,0.00
2017-12-01T01:57:27.557Z,0.00
2017-12-01T01:58:27.536Z,0.00
2017-12-01T01:59:27.548Z,0.00
2017-12-01T02:00:27.518Z,0.00
2017-12-01T02:01:27.496Z,0.00
2017-12-01T02:02:27.484Z,0.00
2017-12-01T02:03:27.451Z,0.00
2017-12-01T02:04:27.439Z,0.00
2017-12-01T02:05:27.453Z,0.00
2017-12-01T02:06:27.403Z,0.00
2017-12-01T02:07:27.600Z,0.00
2017-12-01T02:08:27.369Z,0.00
2017-12-01T02:09:27.347Z,0.00
2017-12-01T02:10:27.339Z,0.00
2017-12-01T02:11:27.313Z,0.00
2017-12-01T02:12:27.298Z,0.00
2017-12-01T02:13:27.355Z,0.00
2017-12-01T02:14:27.284Z,0.00
2017-12-01T02:15:27.248Z,0.00
2017-12-01T02:16:27.229Z,0.00
2017-12-01T02:17:27.214Z,0.00
2017-12-01T02:18:27.215Z,0.00
2017-12-01T02:19:27.337Z,0.00
2017-12-01T02:20:27.164Z,0.00
2017-12-01T02:21:27.163Z,0.00
2017-12-01T02:22:27.144Z,0.00
2017-12-01T02:23:27.125Z,0.00
2017-12-01T02:24:27.112Z,0.00
2017-12-01T02:25:27.148Z,0.00
2017-12-01T02:26:27.063Z,0.00
2017-12-01T02:27:27.048Z,0.00
2017-12-01T02:28:27.040Z,0.00
2017-12-01T02:29:27.021Z,0.00
2017-12-01T02:30:27.016Z,0.00
2017-12-01T02:31:27.052Z,0.00
2017-12-01T02:32:26.971Z,0.00
2017-12-01T02:33:26.964Z,0.00
2017-12-01T02:34:26.935Z,0.00
2017-12-01T02:35:26.915Z,0.00
2017-12-01T02:36:26.913Z,0.00
2017-12-01T02:37:26.909Z,0.00
2017-12-01T02:38:26.860Z,0.00
2017-12-01T02:39:26.871Z,0.00
2017-12-01T02:40:26.840Z,0.00
2017-12-01T02:41:26.851Z,0.00
2017-12-01T02:42:26.800Z,0.00
2017-12-01T02:43:26.818Z,0.00
2017-12-01T02:44:26.773Z,0.00
2017-12-01T02:45:26.745Z,0.00
2017-12-01T02:46:26.862Z,0.00
2017-12-01T02:47:26.712Z,0.00
2017-12-01T02:48:26.707Z,0.00
2017-12-01T02:49:26.674Z,0.00
2017-12-01T02:50:26.664Z,0.00
2017-12-01T02:51:26.654Z,0.00
2017-12-01T02:52:26.698Z,0.00
2017-12-01T02:53:26.631Z,0.00
2017-12-01T02:54:26.611Z,0.00
2017-12-01T02:55:26.578Z,0.00
2017-12-01T02:56:26.567Z,0.00
2017-12-01T02:57:26.547Z,0.00
2017-12-01T02:58:26.570Z,0.00
2017-12-01T02:59:26.512Z,0.00
2017-12-01T03:00:26.489Z,0.00
2017-12-01T03:01:26.473Z,0.00
2017-12-01T03:02:26.469Z,0.00
2017-12-01T03:03:26.524Z,0.00
2017-12-01T03:04:26.438Z,0.00
2017-12-01T03:05:26.409Z,0.00
2017-12-01T03:06:26.393Z,0.00
2017-12-01T03:07:26.394Z,0.00
2017-12-01T03:08:26.366Z,0.00
2017-12-01T03:09:26.491Z,0.00
2017-12-01T03:10:26.355Z,0.00
2017-12-01T03:11:26.321Z,0.00
2017-12-01T03:12:26.303Z,0.00
2017-12-01T03:13:26.288Z,0.00
2017-12-01T03:14:26.279Z,0.00
2017-12-01T03:15:26.274Z,0.00
2017-12-01T03:16:26.243Z,0.00
2017-12-01T03:17:26.222Z,0.00
2017-12-01T03:18:26.249Z,0.00
2017-12-01T03:19:26.176Z,0.00
2017-12-01T03:20:26.167Z,0.00
2017-12-01T03:21:26.140Z,0.00
2017-12-01T03:22:26.131Z,0.00
2017-12-01T03:23:26.118Z,0.00
2017-12-01T03:24:26.154Z,0.00
2017-12-01T03:25:26.088Z,0.00
2017-12-01T03:26:26.065Z,0.00
2017-12-01T03:27:26.053Z,0.00
2017-12-01T03:28:26.037Z,0.00
2017-12-01T03:29:26.023Z,0.00
2017-12-01T03:30:26.063Z,0.00
2017-12-01T03:31:25.975Z,0.00
2017-12-01T03:32:25.966Z,0.00
2017-12-01T03:33:25.966Z,0.00
2017-12-01T03:34:25.934Z,0.00
2017-12-01T03:35:25.917Z,0.00
2017-12-01T03:36:26.034Z,0.00
2017-12-01T03:37:25.875Z,0.00
2017-12-01T03:38:25.862Z,0.00
2017-12-01T03:39:25.834Z,0.00
2017-12-01T03:40:25.819Z,0.00
2017-12-01T03:41:25.798Z,0.00
2017-12-01T03:42:25.851Z,0.00
2017-12-01T03:43:25.777Z,0.00
2017-12-01T03:44:25.749Z,0.00
2017-12-01T03:45:25.752Z,0.00
2017-12-01T03:46:25.713Z,0.00
2017-12-01T03:47:25.717Z,0.00
2017-12-01T03:48:25.820Z,0.00
2017-12-01T03:49:25.664Z,0.00
2017-12-01T03:50:25.658Z,0.00
2017-12-01T03:51:25.645Z,0.00
2017-12-01T03:52:25.618Z,0.00
2017-12-01T03:53:25.605Z,0.00
2017-12-01T03:54:25.741Z,0.00
2017-12-01T03:55:25.575Z,0.00
2017-12-01T03:56:25.567Z,0.00
2017-12-01T03:57:25.535Z,0.00
2017-12-01T03:58:25.513Z,0.00
2017-12-01T03:59:25.498Z,0.00
2017-12-01T04:00:25.544Z,0.00
2017-12-01T04:01:25.472Z,0.00
2017-12-01T04:02:25.458Z,0.00
2017-12-01T04:03:25.428Z,0.00
2017-12-01T04:04:25.414Z,0.00
2017-12-01T04:05:25.394Z,0.00
2017-12-01T04:06:25.418Z,0.00
2017-12-01T04:07:25.359Z,0.00
2017-12-01T04:08:25.352Z,0.00
2017-12-01T04:09:25.328Z,0.00
2017-12-01T04:10:25.317Z,0.00
2017-12-01T04:11:25.437Z,0.00
2017-12-01T04:12:25.275Z,0.00
2017-12-01T04:13:25.259Z,0.00
2017-12-01T04:14:25.242Z,0.00
2017-12-01T04:15:25.249Z,0.00
2017-12-01T04:16:25.210Z,0.00
2017-12-01T04:17:25.220Z,0.00
2017-12-01T04:18:25.180Z,0.00
2017-12-01T04:19:25.223Z,0.00
2017-12-01T04:20:25.142Z,0.00
2017-12-01T04:21:25.131Z,0.00
2017-12-01T04:22:25.107Z,0.00
2017-12-01T04:23:25.090Z,0.00
2017-12-01T04:24:25.064Z,0.00
2017-12-01T04:25:25.076Z,0.00
2017-12-01T04:26:25.032Z,0.00
2017-12-01T04:27:25.021Z,0.00
2017-12-01T04:28:25.006Z,0.00
2017-12-01T04:29:24.977Z,0.00
2017-12-01T04:30:25.123Z,0.00
2017-12-01T04:31:24.962Z,0.00
2017-12-01T04:32:24.939Z,0.00
2017-12-01T04:33:24.910Z,0.00
2017-12-01T04:34:24.905Z,0.00
2017-12-01T04:35:24.887Z,0.00
2017-12-01T04:36:24.936Z,0.00
2017-12-01T04:37:24.856Z,0.00
2017-12-01T04:38:24.852Z,0.00
2017-12-01T04:39:24.820Z,0.00
2017-12-01T04:40:24.806Z,0.00
2017-12-01T04:41:24.793Z,0.00
2017-12-01T04:42:24.914Z,0.00
2017-12-01T04:43:24.745Z,0.00
2017-12-01T04:44:24.740Z,0.00
2017-12-01T04:45:24.715Z,0.00
2017-12-01T04:46:24.692Z,0.00
2017-12-01T04:47:24.699Z,0.00
2017-12-01T04:48:24.824Z,0.00
2017-12-01T04:49:24.650Z,0.00
2017-12-01T04:50:24.643Z,0.00
2017-12-01T04:51:24.625Z,0.00
2017-12-01T04:52:24.610Z,0.00
2017-12-01T04:53:24.580Z,0.00
2017-12-01T04:54:24.604Z,0.00
2017-12-01T04:55:24.548Z,0.00
2017-12-01T04:56:24.539Z,0.00
2017-12-01T04:57:24.508Z,0.00
2017-12-01T04:58:24.489Z,0.00
2017-12-01T04:59:24.616Z,0.00
2017-12-01T05:00:24.446Z,0.00
2017-12-01T05:01:24.451Z,0.00
2017-12-01T05:02:24.440Z,0.00
2017-12-01T05:03:24.418Z,0.00
2017-12-01T05:04:24.398Z,0.00
2017-12-01T05:05:24.408Z,0.00
2017-12-01T05:06:24.347Z,0.00
2017-12-01T05:07:24.335Z,0.00
2017-12-01T05:08:24.326Z,0.00
2017-12-01T05:09:24.310Z,0.00
2017-12-01T05:10:24.353Z,0.00
2017-12-01T05:11:24.274Z,0.00
2017-12-01T05:12:24.244Z,0.00
2017-12-01T05:13:24.240Z,0.00
2017-12-01T05:14:24.208Z,0.00
2017-12-01T05:15:24.199Z,0.00
2017-12-01T05:16:24.203Z,0.00
2017-12-01T05:17:24.158Z,0.00
2017-12-01T05:18:24.206Z,0.00
2017-12-01T05:19:24.137Z,0.00
2017-12-01T05:20:24.127Z,0.00
2017-12-01T05:21:24.092Z,0.00
2017-12-01T05:22:24.076Z,0.00
2017-12-01T05:23:24.062Z,0.00
2017-12-01T05:24:24.086Z,0.00
2017-12-01T05:25:24.037Z,0.00
2017-12-01T05:26:24.005Z,0.00
2017-12-01T05:27:23.987Z,0.00
2017-12-01T05:28:24.001Z,0.00
2017-12-01T05:29:23.964Z,0.00
2017-12-01T05:30:23.997Z,0.00
2017-12-01T05:31:23.925Z,0.00
2017-12-01T05:32:23.919Z,0.00
2017-12-01T05:33:23.889Z,0.00
2017-12-01T05:34:23.876Z,0.00
2017-12-01T05:35:23.867Z,0.00
2017-12-01T05:36:23.864Z,0.00
2017-12-01T05:37:23.829Z,0.00
2017-12-01T05:38:23.812Z,0.00
2017-12-01T05:39:23.938Z,0.00
2017-12-01T05:40:23.769Z,0.00
2017-12-01T05:41:23.747Z,0.00
2017-12-01T05:42:23.734Z,0.00
2017-12-01T05:43:23.723Z,0.00
2017-12-01T05:44:23.700Z,0.00
2017-12-01T05:45:23.762Z,0.00
2017-12-01T05:46:23.663Z,0.00
2017-12-01T05:47:23.653Z,0.00
2017-12-01T05:48:23.637Z,0.00
2017-12-01T05:49:23.610Z,0.00
2017-12-01T05:50:23.604Z,0.00
2017-12-01T05:51:23.724Z,0.00
2017-12-01T05:52:23.570Z,0.00
2017-12-01T05:53:23.559Z,0.00
2017-12-01T05:54:23.529Z,0.00
2017-12-01T05:55:23.515Z,0.00
2017-12-01T05:56:23.503Z,0.00
2017-12-01T05:57:23.517Z,0.00
2017-12-01T05:58:23.481Z,0.00
2017-12-01T05:59:23.447Z,0.00
2017-12-01T06:00:23.422Z,0.00
2017-12-01T06:01:23.419Z,0.00
2017-12-01T06:02:23.384Z,0.00
2017-12-01T06:03:23.445Z,0.00
2017-12-01T06:04:23.347Z,0.00
2017-12-01T06:05:23.340Z,0.00
2017-12-01T06:06:23.341Z,0.00
2017-12-01T06:07:23.298Z,0.00
2017-12-01T06:08:23.297Z,0.00
2017-12-01T06:09:23.304Z,0.00
2017-12-01T06:10:23.248Z,0.00
2017-12-01T06:11:23.241Z,0.00
2017-12-01T06:12:23.228Z,0.00
2017-12-01T06:13:23.200Z,0.00
2017-12-01T06:14:23.333Z,0.00
2017-12-01T06:15:23.186Z,0.00
2017-12-01T06:16:23.146Z,0.00
2017-12-01T06:17:23.135Z,0.00
2017-12-01T06:18:23.175Z,0.00
2017-12-01T06:19:23.113Z,0.00
2017-12-01T06:20:23.098Z,0.00
2017-12-01T06:21:23.076Z,0.00
2017-12-01T06:22:23.050Z,0.00
2017-12-01T06:23:23.029Z,0.00
2017-12-01T06:24:23.008Z,0.00
2017-12-01T06:25:23.060Z,0.00
2017-12-01T06:26:22.979Z,0.00
2017-12-01T06:27:22.950Z,0.00
2017-12-01T06:28:22.940Z,0.00
2017-12-01T06:29:22.931Z,0.00
2017-12-01T06:30:22.915Z,0.00
2017-12-01T06:31:22.946Z,0.00
2017-12-01T06:32:22.866Z,0.00
2017-12-01T06:33:22.843Z,0.00
2017-12-01T06:34:22.845Z,0.00
2017-12-01T06:35:22.818Z,0.00
2017-12-01T06:36:22.796Z,0.00
2017-12-01T06:37:22.846Z,0.00
2017-12-01T06:38:22.768Z,0.00
2017-12-01T06:39:22.741Z,0.00
2017-12-01T06:40:22.723Z,0.00
2017-12-01T06:41:22.709Z,0.00
2017-12-01T06:42:22.688Z,0.00
2017-12-01T06:43:22.735Z,0.00
2017-12-01T06:44:22.657Z,0.00
2017-12-01T06:45:22.653Z,0.00
2017-12-01T06:46:22.632Z,0.00
2017-12-01T06:47:22.622Z,0.00
2017-12-01T06:48:22.609Z,0.00
2017-12-01T06:49:22.627Z,0.00
2017-12-01T06:50:22.571Z,0.00
2017-12-01T06:51:22.550Z,0.00
2017-12-01T06:52:22.534Z,0.00
2017-12-01T06:53:22.514Z,0.00
2017-12-01T06:54:22.495Z,0.00
2017-12-01T06:55:22.537Z,0.00
2017-12-01T06:56:22.459Z,0.00
2017-12-01T06:57:22.442Z,0.00
2017-12-01T06:58:22.416Z,0.00
2017-12-01T06:59:22.413Z,0.00
2017-12-01T07:00:22.404Z,0.00
2017-12-01T07:01:22.519Z,0.00
2017-12-01T07:02:22.362Z,0.00
2017-12-01T07:03:22.327Z,0.00
2017-12-01T07:04:22.326Z,0.00
2017-12-01T07:05:22.296Z,0.00
2017-12-01T07:06:22.273Z,0.00
2017-12-01T07:07:22.326Z,0.00
2017-12-01T07:08:22.241Z,0.00
2017-12-01T07:09:22.229Z,0.00
2017-12-01T07:10:22.224Z,0.00
2017-12-01T07:11:22.193Z,0.00
2017-12-01T07:12:22.189Z,0.00
2017-12-01T07:13:22.200Z,0.00
2017-12-01T07:14:22.140Z,0.00
2017-12-01T07:15:22.125Z,0.00
2017-12-01T07:16:22.109Z,0.00
2017-12-01T07:17:22.166Z,0.00
2017-12-01T07:18:22.092Z,0.00
2017-12-01T07:19:22.055Z,0.00
2017-12-01T07:20:22.053Z,5.63
2017-12-01T07:21:22.026Z,5.63
2017-12-01T07:22:22.021Z,5.63
2017-12-01T07:23:22.130Z,5.63
2017-12-01T07:24:21.985Z,5.63
2017-12-01T07:25:21.967Z,5.63
2017-12-01T07:26:21.942Z,5.63
2017-12-01T07:27:21.915Z,5.63
2017-12-01T07:28:21.908Z,5.63
2017-12-01T07:29:22.041Z,5.63
2017-12-01T07:30:21.867Z,5.63
2017-12-01T07:31:21.865Z,5.63
2017-12-01T07:32:21.828Z,5.63
2017-12-01T07:33:21.816Z,5.63
2017-12-01T07:34:21.797Z,5.63
2017-12-01T07:35:21.857Z,11.25
2017-12-01T07:36:21.774Z,11.25
2017-12-01T07:37:21.750Z,11.25
2017-12-01T07:38:21.735Z,11.25
2017-12-01T07:39:21.730Z,11.25
2017-12-01T07:40:21.691Z,11.25
2017-12-01T07:41:21.761Z,11.25
2017-12-01T07:42:21.655Z,11.25
2017-12-01T07:43:21.652Z,11.25
2017-12-01T07:44:21.638Z,11.25
2017-12-01T07:45:21.610Z,11.25
2017-12-01T07:46:21.593Z,11.25
2017-12-01T07:47:21.615Z,11.25
2017-12-01T07:48:21.582Z,11.25
2017-12-01T07:49:21.546Z,11.25
2017-12-01T07:50:21.540Z,11.25
2017-12-01T07:51:21.516Z,11.25
2017-12-01T07:52:21.491Z,11.25
2017-12-01T07:53:21.614Z,11.25
2017-12-01T07:54:21.469Z,11.25
2017-12-01T07:55:21.446Z,11.25
2017-12-01T07:56:21.429Z,11.25
2017-12-01T07:57:22.030Z,11.25
2017-12-01T07:58:21.488Z,11.25
2017-12-01T07:59:21.447Z,11.25
2017-12-01T08:00:22.065Z,11.25
2017-12-01T08:01:21.991Z,11.25
2017-12-01T08:02:21.329Z,11.25
2017-12-01T08:03:21.307Z,11.25
2017-12-01T08:04:21.295Z,16.88
2017-12-01T08:05:21.384Z,16.88
2017-12-01T08:06:21.256Z,16.88
2017-12-01T08:07:21.312Z,16.88
2017-12-01T08:08:22.228Z,22.50
2017-12-01T08:14:16.100Z,16.88
2017-12-01T08:15:16.041Z,16.88
2017-12-01T08:16:16.019Z,22.50
2017-12-01T08:17:16.019Z,22.50
2017-12-01T08:18:15.996Z,22.50
2017-12-01T08:19:16.400Z,22.50
2017-12-01T08:20:15.953Z,22.50
2017-12-01T08:21:15.975Z,22.50
2017-12-01T08:22:15.918Z,28.13
2017-12-01T08:23:15.932Z,33.75
2017-12-01T08:24:15.948Z,33.75
2017-12-01T08:25:15.871Z,33.75
2017-12-01T08:26:15.842Z,39.38
2017-12-01T08:27:15.840Z,33.75
2017-12-01T08:28:15.821Z,28.13
2017-12-01T08:29:15.795Z,28.13
2017-12-01T08:30:16.084Z,28.13
2017-12-01T08:31:15.763Z,22.50
2017-12-01T08:32:15.756Z,28.13
2017-12-01T08:33:15.724Z,28.13
2017-12-01T08:34:15.716Z,28.13
2017-12-01T08:35:15.686Z,28.13
2017-12-01T08:36:15.745Z,28.13
2017-12-01T08:37:15.656Z,28.13
2017-12-01T08:38:15.636Z,28.13
2017-12-01T08:47:23.836Z,28.13
2017-12-01T08:48:23.739Z,28.13
2017-12-01T09:08:17.729Z,11.25
2017-12-01T09:09:17.598Z,5.63
2017-12-01T09:10:17.569Z,16.88
2017-12-01T09:11:17.554Z,16.88
2017-12-01T09:12:17.535Z,16.88
2017-12-01T09:13:17.527Z,16.88
2017-12-01T09:15:46.109Z,73.13
2017-12-01T09:16:46.067Z,73.13
2017-12-01T09:21:21.031Z,84.38
2017-12-01T09:30:58.563Z,90.00
2017-12-01T09:31:58.581Z,101.25
2017-12-01T09:32:58.514Z,90.00
2017-12-01T09:33:58.451Z,106.88
2017-12-01T09:34:58.516Z,112.50
2017-12-01T09:35:58.423Z,129.38
2017-12-01T09:36:58.407Z,123.75
2017-12-01T09:37:58.409Z,123.75
2017-12-01T09:38:59.166Z,106.88
2017-12-01T09:39:58.361Z,101.25
2017-12-01T09:40:58.371Z,95.63
2017-12-01T09:41:59.325Z,95.63
2017-12-01T09:42:58.299Z,95.63
2017-12-01T09:43:58.301Z,95.63
2017-12-01T09:44:58.291Z,95.63
2017-12-01T09:45:58.278Z,101.25
2017-12-01T09:46:58.263Z,101.25
2017-12-01T09:47:58.219Z,101.25
2017-12-01T09:48:58.202Z,101.25
2017-12-01T09:49:58.248Z,106.88
2017-12-01T09:50:58.183Z,106.88
2017-12-01T09:51:58.164Z,106.88
2017-12-01T09:52:58.157Z,112.50
2017-12-01T09:53:58.123Z,118.13
2017-12-01T09:54:58.115Z,118.13
2017-12-01T09:55:58.169Z,123.75
2017-12-01T09:56:58.085Z,129.38
2017-12-01T09:57:58.069Z,129.38
2017-12-01T09:58:58.052Z,140.63
2017-12-01T09:59:58.023Z,146.25
2017-12-01T10:00:58.025Z,151.88
2017-12-01T10:01:58.032Z,157.50
2017-12-01T10:02:57.979Z,168.75
2017-12-01T10:03:57.977Z,168.75
2017-12-01T10:04:57.954Z,163.13
2017-12-01T10:05:57.934Z,157.50
2017-12-01T10:06:57.995Z,151.88
2017-12-01T10:07:57.894Z,140.63
2017-12-01T10:08:57.878Z,140.63
2017-12-01T10:09:57.865Z,140.63
2017-12-01T10:10:57.844Z,140.63
2017-12-01T10:11:57.964Z,140.63
2017-12-01T10:12:57.817Z,140.63
2017-12-01T10:13:57.804Z,135.00
2017-12-01T10:14:57.787Z,140.63
2017-12-01T10:15:57.783Z,146.25
2017-12-01T10:16:57.766Z,146.25
2017-12-01T10:17:57.874Z,135.00
2017-12-01T10:18:57.728Z,140.63
2017-12-01T10:19:57.714Z,151.88
2017-12-01T10:20:57.689Z,157.50
2017-12-01T10:21:57.690Z,157.50
2017-12-01T10:22:57.665Z,168.75
2017-12-01T10:23:57.701Z,174.38
2017-12-01T10:24:57.636Z,157.50
2017-12-01T10:25:57.622Z,118.13
2017-12-01T10:26:57.622Z,90.00
2017-12-01T10:28:00.277Z,90.00
2017-12-01T10:28:59.090Z,90.00
2017-12-01T10:29:58.506Z,84.38
2017-12-01T10:30:58.126Z,84.38
2017-12-01T10:31:58.144Z,84.38
2017-12-01T10:33:00.877Z,90.00
2017-12-01T10:33:58.187Z,90.00
2017-12-01T10:34:58.194Z,95.63
2017-12-01T10:35:57.602Z,95.63
2017-12-01T10:36:57.428Z,90.00
2017-12-01T10:37:57.422Z,90.00
2017-12-01T10:38:57.400Z,90.00
2017-12-01T10:39:58.052Z,90.00
2017-12-01T10:40:57.363Z,90.00
2017-12-01T10:41:57.410Z,90.00
2017-12-01T10:42:57.344Z,84.38
2017-12-01T10:43:57.314Z,84.38
2017-12-01T10:44:57.309Z,84.38
2017-12-01T10:45:57.289Z,84.38
2017-12-01T10:46:57.266Z,95.63
2017-12-01T10:47:57.323Z,106.88
2017-12-01T10:48:57.234Z,106.88
2017-12-01T10:49:57.217Z,101.25
2017-12-01T10:50:57.200Z,118.13
2017-12-01T10:51:57.196Z,135.00
2017-12-01T10:52:57.174Z,123.75
2017-12-01T10:53:57.259Z,146.25
2017-12-01T10:54:57.152Z,157.50
2017-12-01T10:55:57.119Z,146.25
2017-12-01T10:56:57.106Z,129.38
2017-12-01T10:57:57.085Z,123.75
2017-12-01T10:58:57.102Z,135.00
2017-12-01T10:59:58.137Z,146.25
2017-12-01T11:00:57.048Z,151.88
2017-12-01T11:01:57.040Z,129.38
2017-12-01T11:02:57.662Z,95.63
2017-12-01T11:03:57.019Z,90.00
2017-12-01T11:04:56.978Z,101.25
2017-12-01T11:05:57.002Z,118.13
2017-12-01T11:06:56.948Z,129.38
2017-12-01T11:07:56.983Z,129.38
2017-12-01T11:08:56.924Z,151.88
2017-12-01T11:09:56.898Z,157.50
2017-12-01T11:10:57.040Z,146.25
2017-12-01T11:11:56.879Z,163.13
2017-12-01T11:12:56.852Z,163.13
2017-12-01T11:13:56.843Z,163.13
2017-12-01T11:14:56.821Z,151.88
2017-12-01T11:15:56.813Z,157.50
2017-12-01T11:16:56.842Z,168.75
2017-12-01T11:17:56.778Z,163.13
2017-12-01T11:18:56.754Z,163.13
2017-12-01T11:19:56.748Z,163.13
2017-12-01T11:20:56.730Z,168.75
2017-12-01T11:21:56.718Z,163.13
2017-12-01T11:22:56.723Z,151.88
2017-12-01T11:23:56.689Z,140.63
2017-12-01T11:24:56.671Z,135.00
2017-12-01T11:25:56.659Z,123.75
2017-12-01T11:26:56.647Z,118.13
2017-12-01T11:27:56.611Z,123.75
2017-12-01T11:28:56.639Z,112.50
2017-12-01T11:29:56.593Z,106.88
2017-12-01T11:30:56.604Z,95.63
2017-12-01T11:31:56.542Z,90.00
2017-12-01T11:32:56.546Z,90.00
2017-12-01T11:33:56.513Z,90.00
2017-12-01T11:34:56.500Z,84.38
2017-12-01T11:35:56.529Z,84.38
2017-12-01T11:36:56.481Z,90.00
2017-12-01T11:37:56.458Z,90.00
2017-12-01T11:38:56.445Z,90.00
2017-12-01T11:39:56.414Z,90.00
2017-12-01T11:40:56.447Z,84.38
2017-12-01T11:41:56.392Z,78.75
2017-12-01T11:42:56.383Z,78.75
2017-12-01T11:43:56.382Z,73.13
2017-12-01T11:44:56.336Z,73.13
2017-12-01T11:45:56.359Z,67.50
2017-12-01T11:46:56.305Z,61.88
2017-12-01T11:47:56.288Z,61.88
2017-12-01T11:48:56.285Z,61.88
2017-12-01T11:49:56.271Z,61.88
2017-12-01T11:50:56.273Z,61.88
2017-12-01T11:51:56.242Z,56.25
2017-12-01T11:52:56.218Z,56.25
2017-12-01T11:53:56.194Z,56.25
2017-12-01T11:54:56.255Z,50.63
2017-12-01T11:55:56.188Z,50.63
2017-12-01T11:56:56.153Z,50.63
2017-12-01T11:57:56.148Z,50.63
2017-12-01T11:58:56.114Z,50.63
2017-12-01T11:59:56.114Z,56.25
2017-12-01T12:00:56.134Z,56.25
2017-12-01T12:01:56.073Z,61.88
2017-12-01T12:02:56.216Z,61.88
2017-12-01T12:03:56.047Z,61.88
2017-12-01T12:04:56.028Z,67.50
2017-12-01T12:05:55.999Z,78.75
2017-12-01T12:06:56.087Z,84.38
2017-12-01T12:07:55.979Z,84.38
2017-12-01T12:08:55.962Z,84.38
2017-12-01T12:09:55.946Z,90.00
2017-12-01T12:10:55.934Z,95.63
2017-12-01T12:11:55.904Z,101.25
2017-12-01T12:12:55.961Z,101.25
2017-12-01T12:13:55.870Z,101.25
2017-12-01T12:14:55.869Z,95.63
2017-12-01T12:15:55.836Z,90.00
2017-12-01T12:16:55.837Z,90.00
2017-12-01T12:17:55.818Z,90.00
2017-12-01T12:18:55.925Z,84.38
2017-12-01T12:19:55.788Z,84.38
2017-12-01T12:20:55.780Z,84.38
2017-12-01T12:21:55.754Z,84.38
2017-12-01T12:22:55.743Z,84.38
2017-12-01T12:23:55.708Z,84.38
2017-12-01T12:24:55.739Z,84.38
2017-12-01T12:25:55.681Z,78.75
2017-12-01T12:26:55.669Z,84.38
2017-12-01T12:27:55.653Z,90.00
2017-12-01T12:28:55.639Z,90.00
2017-12-01T12:29:55.674Z,90.00
2017-12-01T12:30:55.602Z,90.00
2017-12-01T12:31:55.579Z,84.38
2017-12-01T12:32:56.729Z,84.38
2017-12-01T12:33:55.564Z,78.75
2017-12-01T12:34:55.548Z,84.38
2017-12-01T12:35:55.574Z,90.00
2017-12-01T12:36:55.520Z,95.63
2017-12-01T12:37:55.493Z,95.63
2017-12-01T12:38:55.476Z,101.25
2017-12-01T12:39:55.452Z,112.50
2017-12-01T12:40:55.451Z,118.13
2017-12-01T12:41:55.475Z,123.75
2017-12-01T12:42:55.413Z,123.75
2017-12-01T12:43:55.387Z,112.50
2017-12-01T12:44:55.390Z,101.25
2017-12-01T12:45:55.352Z,101.25
2017-12-01T12:46:55.484Z,106.88
2017-12-01T12:47:55.332Z,101.25
2017-12-01T12:48:55.308Z,101.25
2017-12-01T12:49:55.301Z,106.88
2017-12-01T12:50:55.293Z,101.25
2017-12-01T12:51:55.258Z,101.25
2017-12-01T12:52:55.300Z,106.88
2017-12-01T12:53:55.241Z,106.88
2017-12-01T12:54:55.206Z,112.50
2017-12-01T12:55:55.199Z,118.13
2017-12-01T12:56:55.175Z,129.38
2017-12-01T12:57:55.168Z,140.63
2017-12-01T12:58:55.197Z,146.25
2017-12-01T12:59:55.135Z,151.88
2017-12-01T13:00:55.118Z,151.88
2017-12-01T13:01:55.105Z,151.88
2017-12-01T13:02:55.084Z,157.50
2017-12-01T13:03:55.223Z,157.50
2017-12-01T13:04:55.062Z,146.25
2017-12-01T13:05:55.045Z,146.25
2017-12-01T13:06:55.030Z,168.75
2017-12-01T13:07:55.003Z,185.63
2017-12-01T13:08:54.987Z,191.25
2017-12-01T13:09:55.044Z,196.88
2017-12-01T13:10:54.954Z,196.88
2017-12-01T13:11:54.953Z,202.50
2017-12-01T13:12:54.919Z,196.88
2017-12-01T13:13:54.920Z,168.75
2017-12-01T13:14:54.886Z,140.63
2017-12-01T13:15:55.016Z,123.75
2017-12-01T13:16:54.857Z,112.50
2017-12-01T13:17:54.848Z,118.13
2017-12-01T13:18:54.834Z,118.13
2017-12-01T13:19:54.823Z,118.13
2017-12-01T13:20:54.808Z,112.50
2017-12-01T13:21:54.829Z,106.88
2017-12-01T13:22:54.776Z,95.63
2017-12-01T13:23:54.748Z,84.38
2017-12-01T13:24:54.749Z,78.75
2017-12-01T13:25:54.760Z,78.75
2017-12-01T13:26:54.733Z,78.75
2017-12-01T13:27:54.709Z,78.75
2017-12-01T13:28:54.673Z,84.38
2017-12-01T13:29:54.652Z,78.75
2017-12-01T13:30:54.706Z,90.00
2017-12-01T13:31:54.617Z,90.00
2017-12-01T13:32:54.618Z,84.38
2017-12-01T13:33:54.587Z,84.38
2017-12-01T13:34:54.573Z,78.75
2017-12-01T13:35:54.560Z,84.38
2017-12-01T13:36:54.590Z,78.75
2017-12-01T13:37:54.688Z,78.75
2017-12-01T13:38:54.508Z,73.13
2017-12-01T13:39:54.505Z,73.13
2017-12-01T13:40:54.482Z,73.13
2017-12-01T13:41:54.476Z,67.50
2017-12-01T13:42:54.444Z,67.50
2017-12-01T13:43:54.568Z,67.50
2017-12-01T13:44:54.418Z,67.50
2017-12-01T13:45:54.399Z,73.13
2017-12-01T13:46:54.394Z,67.50
2017-12-01T13:47:54.378Z,67.50